sensor_id;sensor_type;location;lat;lon;timestamp;P1;durP1;ratioP1;P2;durP2;ratioP2
24216;SDS011;12356;49.386;8.688;2024-01-15T00:00:52;41.88;;;13.93;;
24216;SDS011;12356;49.386;8.688;2024-01-15T00:03:22;38.30;;;13.80;;
24216;SDS011;12356;49.386;8.688;2024-01-15T00:05:53;39.60;;;13.60;;
24216;SDS011;12356;49.386;8.688;2024-01-15T00:08:23;35.50;;;12.93;;
24216;SDS011;12356;49.386;8.688;2024-01-15T00:10:54;41.53;;;13.93;;
24216;SDS011;12356;49.386;8.688;2024-01-15T00:13:24;40.33;;;13.48;;
24216;SDS011;12356;49.386;8.688;2024-01-15T00:15:55;41.20;;;14.30;;
24216;SDS011;12356;49.386;8.688;2024-01-15T00:18:26;37.00;;;13.10;;
24216;SDS011;12356;49.386;8.688;2024-01-15T00:20:56;40.22;;;13.75;;
24216;SDS011;12356;49.386;8.688;2024-01-15T00:23:27;41.28;;;14.48;;
24216;SDS011;12356;49.386;8.688;2024-01-15T00:25:57;39.45;;;14.00;;
24216;SDS011;12356;49.386;8.688;2024-01-15T00:28:28;42.17;;;14.15;;
24216;SDS011;12356;49.386;8.688;2024-01-15T00:30:58;39.95;;;14.10;;
24216;SDS011;12356;49.386;8.688;2024-01-15T00:33:29;40.95;;;14.63;;
24216;SDS011;12356;49.386;8.688;2024-01-15T00:35:59;37.20;;;13.15;;
24216;SDS011;12356;49.386;8.688;2024-01-15T00:38:30;39.40;;;14.23;;
24216;SDS011;12356;49.386;8.688;2024-01-15T00:41:00;38.67;;;14.18;;
24216;SDS011;12356;49.386;8.688;2024-01-15T00:43:32;40.70;;;13.68;;
24216;SDS011;12356;49.386;8.688;2024-01-15T00:46:02;42.30;;;14.68;;
24216;SDS011;12356;49.386;8.688;2024-01-15T00:48:33;36.92;;;13.50;;
24216;SDS011;12356;49.386;8.688;2024-01-15T00:51:04;38.28;;;14.05;;
24216;SDS011;12356;49.386;8.688;2024-01-15T00:53:35;41.10;;;14.20;;
24216;SDS011;12356;49.386;8.688;2024-01-15T00:56:06;40.05;;;14.00;;
24216;SDS011;12356;49.386;8.688;2024-01-15T00:58:36;39.75;;;13.63;;
24216;SDS011;12356;49.386;8.688;2024-01-15T01:01:07;39.00;;;13.43;;
24216;SDS011;12356;49.386;8.688;2024-01-15T01:03:37;41.95;;;14.50;;
24216;SDS011;12356;49.386;8.688;2024-01-15T01:06:08;37.83;;;13.82;;
24216;SDS011;12356;49.386;8.688;2024-01-15T01:08:38;41.15;;;13.95;;
24216;SDS011;12356;49.386;8.688;2024-01-15T01:11:12;39.75;;;13.63;;
24216;SDS011;12356;49.386;8.688;2024-01-15T01:13:43;38.47;;;13.38;;
24216;SDS011;12356;49.386;8.688;2024-01-15T01:16:14;36.58;;;13.65;;
24216;SDS011;12356;49.386;8.688;2024-01-15T01:18:44;41.70;;;13.95;;
24216;SDS011;12356;49.386;8.688;2024-01-15T01:21:15;40.22;;;13.32;;
24216;SDS011;12356;49.386;8.688;2024-01-15T01:23:46;37.75;;;13.68;;
24216;SDS011;12356;49.386;8.688;2024-01-15T01:26:17;39.10;;;13.80;;
24216;SDS011;12356;49.386;8.688;2024-01-15T01:28:48;38.20;;;13.63;;
24216;SDS011;12356;49.386;8.688;2024-01-15T01:31:18;36.75;;;13.10;;
24216;SDS011;12356;49.386;8.688;2024-01-15T01:33:49;39.08;;;13.13;;
24216;SDS011;12356;49.386;8.688;2024-01-15T01:36:19;37.80;;;13.13;;
24216;SDS011;12356;49.386;8.688;2024-01-15T01:38:50;35.50;;;12.65;;
24216;SDS011;12356;49.386;8.688;2024-01-15T01:41:21;36.20;;;12.75;;
24216;SDS011;12356;49.386;8.688;2024-01-15T01:43:51;42.28;;;13.85;;
24216;SDS011;12356;49.386;8.688;2024-01-15T01:46:22;39.85;;;13.88;;
24216;SDS011;12356;49.386;8.688;2024-01-15T01:48:54;35.38;;;12.77;;
24216;SDS011;12356;49.386;8.688;2024-01-15T01:51:25;37.25;;;12.95;;
24216;SDS011;12356;49.386;8.688;2024-01-15T01:53:56;38.97;;;13.38;;
24216;SDS011;12356;49.386;8.688;2024-01-15T01:56:26;36.90;;;12.63;;
24216;SDS011;12356;49.386;8.688;2024-01-15T01:58:57;36.95;;;13.20;;
24216;SDS011;12356;49.386;8.688;2024-01-15T02:01:29;40.25;;;13.10;;
24216;SDS011;12356;49.386;8.688;2024-01-15T02:04:00;36.83;;;13.80;;
24216;SDS011;12356;49.386;8.688;2024-01-15T02:06:31;38.80;;;13.25;;
24216;SDS011;12356;49.386;8.688;2024-01-15T02:09:01;38.88;;;13.98;;
24216;SDS011;12356;49.386;8.688;2024-01-15T02:11:32;40.10;;;14.73;;
24216;SDS011;12356;49.386;8.688;2024-01-15T02:14:03;35.67;;;13.48;;
24216;SDS011;12356;49.386;8.688;2024-01-15T02:16:34;41.10;;;13.82;;
24216;SDS011;12356;49.386;8.688;2024-01-15T02:19:04;42.75;;;14.63;;
24216;SDS011;12356;49.386;8.688;2024-01-15T02:21:35;45.17;;;14.90;;
24216;SDS011;12356;49.386;8.688;2024-01-15T02:24:05;39.35;;;12.88;;
24216;SDS011;12356;49.386;8.688;2024-01-15T02:26:36;41.33;;;14.00;;
24216;SDS011;12356;49.386;8.688;2024-01-15T02:29:08;40.20;;;13.60;;
24216;SDS011;12356;49.386;8.688;2024-01-15T02:31:39;41.72;;;14.05;;
24216;SDS011;12356;49.386;8.688;2024-01-15T02:34:09;39.72;;;13.80;;
24216;SDS011;12356;49.386;8.688;2024-01-15T02:36:40;36.95;;;13.73;;
24216;SDS011;12356;49.386;8.688;2024-01-15T02:39:11;40.08;;;13.63;;
24216;SDS011;12356;49.386;8.688;2024-01-15T02:41:41;39.15;;;12.98;;
24216;SDS011;12356;49.386;8.688;2024-01-15T02:44:12;37.15;;;13.35;;
24216;SDS011;12356;49.386;8.688;2024-01-15T02:46:42;39.63;;;13.90;;
24216;SDS011;12356;49.386;8.688;2024-01-15T02:49:13;37.95;;;12.80;;
24216;SDS011;12356;49.386;8.688;2024-01-15T02:51:43;37.22;;;13.18;;
24216;SDS011;12356;49.386;8.688;2024-01-15T02:54:14;33.20;;;12.18;;
24216;SDS011;12356;49.386;8.688;2024-01-15T02:56:45;37.65;;;12.70;;
24216;SDS011;12356;49.386;8.688;2024-01-15T02:59:15;36.17;;;12.30;;
24216;SDS011;12356;49.386;8.688;2024-01-15T03:01:46;38.42;;;12.70;;
24216;SDS011;12356;49.386;8.688;2024-01-15T03:04:17;37.28;;;13.00;;
24216;SDS011;12356;49.386;8.688;2024-01-15T03:06:47;37.72;;;13.07;;
24216;SDS011;12356;49.386;8.688;2024-01-15T03:09:18;35.67;;;12.98;;
24216;SDS011;12356;49.386;8.688;2024-01-15T03:11:48;37.35;;;12.93;;
24216;SDS011;12356;49.386;8.688;2024-01-15T03:14:19;35.78;;;12.95;;
24216;SDS011;12356;49.386;8.688;2024-01-15T03:16:50;36.50;;;13.27;;
24216;SDS011;12356;49.386;8.688;2024-01-15T03:19:21;37.80;;;13.00;;
24216;SDS011;12356;49.386;8.688;2024-01-15T03:21:51;39.03;;;13.57;;
24216;SDS011;12356;49.386;8.688;2024-01-15T03:24:22;32.58;;;12.07;;
24216;SDS011;12356;49.386;8.688;2024-01-15T03:26:52;34.78;;;12.73;;
24216;SDS011;12356;49.386;8.688;2024-01-15T03:29:23;34.78;;;11.77;;
24216;SDS011;12356;49.386;8.688;2024-01-15T03:31:53;35.55;;;12.80;;
24216;SDS011;12356;49.386;8.688;2024-01-15T03:34:24;34.60;;;12.45;;
24216;SDS011;12356;49.386;8.688;2024-01-15T03:36:54;34.88;;;12.30;;
24216;SDS011;12356;49.386;8.688;2024-01-15T03:39:25;34.22;;;12.48;;
24216;SDS011;12356;49.386;8.688;2024-01-15T03:41:55;33.80;;;12.00;;
24216;SDS011;12356;49.386;8.688;2024-01-15T03:44:26;34.45;;;11.68;;
24216;SDS011;12356;49.386;8.688;2024-01-15T03:46:56;31.05;;;11.18;;
24216;SDS011;12356;49.386;8.688;2024-01-15T03:49:28;32.90;;;11.77;;
24216;SDS011;12356;49.386;8.688;2024-01-15T03:51:58;32.92;;;11.45;;
24216;SDS011;12356;49.386;8.688;2024-01-15T03:54:29;32.47;;;11.75;;
24216;SDS011;12356;49.386;8.688;2024-01-15T03:56:59;32.50;;;11.68;;
24216;SDS011;12356;49.386;8.688;2024-01-15T03:59:30;31.70;;;11.43;;
24216;SDS011;12356;49.386;8.688;2024-01-15T04:02:00;32.15;;;12.10;;
24216;SDS011;12356;49.386;8.688;2024-01-15T04:04:31;31.35;;;11.68;;
24216;SDS011;12356;49.386;8.688;2024-01-15T04:07:01;30.00;;;11.02;;
24216;SDS011;12356;49.386;8.688;2024-01-15T04:09:32;29.42;;;10.65;;
24216;SDS011;12356;49.386;8.688;2024-01-15T04:12:02;30.40;;;11.07;;
24216;SDS011;12356;49.386;8.688;2024-01-15T04:14:33;29.15;;;10.57;;
24216;SDS011;12356;49.386;8.688;2024-01-15T04:17:04;29.67;;;10.93;;
24216;SDS011;12356;49.386;8.688;2024-01-15T04:19:34;27.85;;;10.30;;
24216;SDS011;12356;49.386;8.688;2024-01-15T04:22:05;27.13;;;10.25;;
24216;SDS011;12356;49.386;8.688;2024-01-15T04:24:35;28.58;;;10.40;;
24216;SDS011;12356;49.386;8.688;2024-01-15T04:27:06;25.00;;;10.10;;
24216;SDS011;12356;49.386;8.688;2024-01-15T04:29:38;28.95;;;11.25;;
24216;SDS011;12356;49.386;8.688;2024-01-15T04:32:09;30.92;;;11.20;;
24216;SDS011;12356;49.386;8.688;2024-01-15T04:34:39;28.80;;;11.27;;
24216;SDS011;12356;49.386;8.688;2024-01-15T04:37:10;29.05;;;10.63;;
24216;SDS011;12356;49.386;8.688;2024-01-15T04:39:41;28.00;;;10.63;;
24216;SDS011;12356;49.386;8.688;2024-01-15T04:42:11;29.25;;;10.73;;
24216;SDS011;12356;49.386;8.688;2024-01-15T04:44:42;26.40;;;10.50;;
24216;SDS011;12356;49.386;8.688;2024-01-15T04:47:12;27.30;;;11.15;;
24216;SDS011;12356;49.386;8.688;2024-01-15T04:49:43;29.08;;;10.65;;
24216;SDS011;12356;49.386;8.688;2024-01-15T04:52:14;30.15;;;10.20;;
24216;SDS011;12356;49.386;8.688;2024-01-15T04:54:45;28.30;;;11.10;;
24216;SDS011;12356;49.386;8.688;2024-01-15T04:57:15;31.25;;;11.25;;
24216;SDS011;12356;49.386;8.688;2024-01-15T04:59:46;27.52;;;10.15;;
24216;SDS011;12356;49.386;8.688;2024-01-15T05:02:16;28.02;;;10.63;;
24216;SDS011;12356;49.386;8.688;2024-01-15T05:04:47;26.48;;;10.57;;
24216;SDS011;12356;49.386;8.688;2024-01-15T05:07:17;29.23;;;10.50;;
24216;SDS011;12356;49.386;8.688;2024-01-15T05:09:48;25.13;;;9.68;;
24216;SDS011;12356;49.386;8.688;2024-01-15T05:12:18;33.35;;;10.57;;
24216;SDS011;12356;49.386;8.688;2024-01-15T05:14:49;26.83;;;10.20;;
24216;SDS011;12356;49.386;8.688;2024-01-15T05:17:19;31.90;;;11.15;;
24216;SDS011;12356;49.386;8.688;2024-01-15T05:19:50;32.22;;;11.13;;
24216;SDS011;12356;49.386;8.688;2024-01-15T05:22:20;28.85;;;11.13;;
24216;SDS011;12356;49.386;8.688;2024-01-15T05:24:51;27.63;;;10.43;;
24216;SDS011;12356;49.386;8.688;2024-01-15T05:27:21;29.70;;;10.55;;
24216;SDS011;12356;49.386;8.688;2024-01-15T05:29:52;27.38;;;10.82;;
24216;SDS011;12356;49.386;8.688;2024-01-15T05:32:23;28.00;;;10.93;;
24216;SDS011;12356;49.386;8.688;2024-01-15T05:34:53;30.45;;;12.30;;
24216;SDS011;12356;49.386;8.688;2024-01-15T05:37:24;27.83;;;11.07;;
24216;SDS011;12356;49.386;8.688;2024-01-15T05:39:55;28.17;;;11.55;;
24216;SDS011;12356;49.386;8.688;2024-01-15T05:42:25;29.63;;;11.48;;
24216;SDS011;12356;49.386;8.688;2024-01-15T05:44:56;29.35;;;11.57;;
24216;SDS011;12356;49.386;8.688;2024-01-15T05:47:29;27.10;;;11.80;;
24216;SDS011;12356;49.386;8.688;2024-01-15T05:50:00;33.38;;;12.00;;
24216;SDS011;12356;49.386;8.688;2024-01-15T05:52:31;30.20;;;11.77;;
24216;SDS011;12356;49.386;8.688;2024-01-15T05:55:02;28.67;;;11.32;;
24216;SDS011;12356;49.386;8.688;2024-01-15T05:57:33;31.25;;;11.27;;
24216;SDS011;12356;49.386;8.688;2024-01-15T06:00:04;31.35;;;11.90;;
24216;SDS011;12356;49.386;8.688;2024-01-15T06:02:36;31.02;;;12.00;;
24216;SDS011;12356;49.386;8.688;2024-01-15T06:05:08;30.63;;;11.27;;
24216;SDS011;12356;49.386;8.688;2024-01-15T06:07:39;28.55;;;11.38;;
24216;SDS011;12356;49.386;8.688;2024-01-15T06:10:09;33.95;;;12.07;;
24216;SDS011;12356;49.386;8.688;2024-01-15T06:12:40;28.88;;;11.80;;
24216;SDS011;12356;49.386;8.688;2024-01-15T06:15:10;28.38;;;10.90;;
24216;SDS011;12356;49.386;8.688;2024-01-15T06:17:42;28.88;;;12.00;;
24216;SDS011;12356;49.386;8.688;2024-01-15T06:20:12;27.30;;;11.10;;
24216;SDS011;12356;49.386;8.688;2024-01-15T06:22:43;28.92;;;11.93;;
24216;SDS011;12356;49.386;8.688;2024-01-15T06:25:13;35.65;;;12.45;;
24216;SDS011;12356;49.386;8.688;2024-01-15T06:27:44;29.98;;;12.00;;
24216;SDS011;12356;49.386;8.688;2024-01-15T06:30:15;27.55;;;11.80;;
24216;SDS011;12356;49.386;8.688;2024-01-15T06:32:45;30.30;;;12.13;;
24216;SDS011;12356;49.386;8.688;2024-01-15T06:35:16;31.13;;;12.82;;
24216;SDS011;12356;49.386;8.688;2024-01-15T06:37:46;31.38;;;12.38;;
24216;SDS011;12356;49.386;8.688;2024-01-15T06:40:17;33.15;;;12.25;;
24216;SDS011;12356;49.386;8.688;2024-01-15T06:42:47;31.33;;;12.15;;
24216;SDS011;12356;49.386;8.688;2024-01-15T06:45:18;33.40;;;12.15;;
24216;SDS011;12356;49.386;8.688;2024-01-15T06:47:48;31.17;;;11.75;;
24216;SDS011;12356;49.386;8.688;2024-01-15T06:50:19;30.60;;;12.27;;
24216;SDS011;12356;49.386;8.688;2024-01-15T06:52:49;32.90;;;12.50;;
24216;SDS011;12356;49.386;8.688;2024-01-15T06:55:20;33.67;;;13.10;;
24216;SDS011;12356;49.386;8.688;2024-01-15T06:57:54;34.10;;;12.90;;
24216;SDS011;12356;49.386;8.688;2024-01-15T07:00:24;29.92;;;12.50;;
24216;SDS011;12356;49.386;8.688;2024-01-15T07:02:55;34.10;;;12.40;;
24216;SDS011;12356;49.386;8.688;2024-01-15T07:05:26;29.33;;;12.15;;
24216;SDS011;12356;49.386;8.688;2024-01-15T07:07:57;30.17;;;12.43;;
24216;SDS011;12356;49.386;8.688;2024-01-15T07:10:28;28.75;;;11.93;;
24216;SDS011;12356;49.386;8.688;2024-01-15T07:12:59;30.98;;;12.20;;
24216;SDS011;12356;49.386;8.688;2024-01-15T07:15:30;29.65;;;11.80;;
24216;SDS011;12356;49.386;8.688;2024-01-15T07:18:00;29.75;;;12.38;;
24216;SDS011;12356;49.386;8.688;2024-01-15T07:20:31;29.17;;;12.30;;
24216;SDS011;12356;49.386;8.688;2024-01-15T07:23:01;30.10;;;12.15;;
24216;SDS011;12356;49.386;8.688;2024-01-15T07:25:33;30.02;;;12.30;;
24216;SDS011;12356;49.386;8.688;2024-01-15T07:28:03;31.92;;;12.82;;
24216;SDS011;12356;49.386;8.688;2024-01-15T07:30:34;30.73;;;12.13;;
24216;SDS011;12356;49.386;8.688;2024-01-15T07:33:05;31.30;;;12.65;;
24216;SDS011;12356;49.386;8.688;2024-01-15T07:35:36;29.50;;;12.35;;
24216;SDS011;12356;49.386;8.688;2024-01-15T07:38:07;31.88;;;12.68;;
24216;SDS011;12356;49.386;8.688;2024-01-15T07:40:38;33.13;;;13.05;;
24216;SDS011;12356;49.386;8.688;2024-01-15T07:43:09;30.55;;;12.55;;
24216;SDS011;12356;49.386;8.688;2024-01-15T07:45:39;30.80;;;13.13;;
24216;SDS011;12356;49.386;8.688;2024-01-15T07:48:10;32.72;;;12.82;;
24216;SDS011;12356;49.386;8.688;2024-01-15T07:50:40;33.13;;;13.20;;
24216;SDS011;12356;49.386;8.688;2024-01-15T07:53:11;31.15;;;12.85;;
24216;SDS011;12356;49.386;8.688;2024-01-15T07:55:41;31.80;;;13.65;;
24216;SDS011;12356;49.386;8.688;2024-01-15T07:58:12;31.02;;;12.90;;
24216;SDS011;12356;49.386;8.688;2024-01-15T08:00:43;33.00;;;12.95;;
24216;SDS011;12356;49.386;8.688;2024-01-15T08:03:14;33.47;;;13.32;;
24216;SDS011;12356;49.386;8.688;2024-01-15T08:05:45;34.25;;;13.15;;
24216;SDS011;12356;49.386;8.688;2024-01-15T08:08:16;30.17;;;12.15;;
24216;SDS011;12356;49.386;8.688;2024-01-15T08:10:47;31.52;;;12.35;;
24216;SDS011;12356;49.386;8.688;2024-01-15T08:13:17;34.10;;;12.80;;
24216;SDS011;12356;49.386;8.688;2024-01-15T08:15:48;35.03;;;12.45;;
24216;SDS011;12356;49.386;8.688;2024-01-15T08:18:20;29.60;;;12.90;;
24216;SDS011;12356;49.386;8.688;2024-01-15T08:20:51;28.90;;;12.20;;
24216;SDS011;12356;49.386;8.688;2024-01-15T08:23:22;30.05;;;12.82;;
24216;SDS011;12356;49.386;8.688;2024-01-15T08:25:52;31.15;;;12.40;;
24216;SDS011;12356;49.386;8.688;2024-01-15T08:28:23;31.92;;;12.48;;
24216;SDS011;12356;49.386;8.688;2024-01-15T08:30:53;29.95;;;12.35;;
24216;SDS011;12356;49.386;8.688;2024-01-15T08:33:24;30.10;;;12.40;;
24216;SDS011;12356;49.386;8.688;2024-01-15T08:35:54;30.35;;;12.52;;
24216;SDS011;12356;49.386;8.688;2024-01-15T08:38:25;29.38;;;12.30;;
24216;SDS011;12356;49.386;8.688;2024-01-15T08:40:56;29.45;;;13.00;;
24216;SDS011;12356;49.386;8.688;2024-01-15T08:43:29;29.83;;;12.75;;
24216;SDS011;12356;49.386;8.688;2024-01-15T08:46:01;32.17;;;13.52;;
24216;SDS011;12356;49.386;8.688;2024-01-15T08:48:32;33.83;;;13.30;;
24216;SDS011;12356;49.386;8.688;2024-01-15T08:51:02;31.65;;;13.35;;
24216;SDS011;12356;49.386;8.688;2024-01-15T08:53:33;37.70;;;13.63;;
24216;SDS011;12356;49.386;8.688;2024-01-15T08:56:03;31.27;;;12.23;;
24216;SDS011;12356;49.386;8.688;2024-01-15T08:58:35;29.45;;;12.30;;
24216;SDS011;12356;49.386;8.688;2024-01-15T09:01:06;31.92;;;13.20;;
24216;SDS011;12356;49.386;8.688;2024-01-15T09:03:37;27.10;;;12.60;;
24216;SDS011;12356;49.386;8.688;2024-01-15T09:06:07;31.27;;;13.07;;
24216;SDS011;12356;49.386;8.688;2024-01-15T09:08:39;32.30;;;13.02;;
24216;SDS011;12356;49.386;8.688;2024-01-15T09:11:10;36.50;;;13.13;;
24216;SDS011;12356;49.386;8.688;2024-01-15T09:13:40;35.30;;;13.13;;
24216;SDS011;12356;49.386;8.688;2024-01-15T09:16:11;29.42;;;12.88;;
24216;SDS011;12356;49.386;8.688;2024-01-15T09:18:41;30.63;;;12.98;;
24216;SDS011;12356;49.386;8.688;2024-01-15T09:21:12;30.00;;;13.48;;
24216;SDS011;12356;49.386;8.688;2024-01-15T09:23:42;28.88;;;12.50;;
24216;SDS011;12356;49.386;8.688;2024-01-15T09:26:13;30.52;;;12.80;;
24216;SDS011;12356;49.386;8.688;2024-01-15T09:28:44;31.92;;;12.52;;
24216;SDS011;12356;49.386;8.688;2024-01-15T09:31:14;28.30;;;12.50;;
24216;SDS011;12356;49.386;8.688;2024-01-15T09:33:47;29.73;;;12.65;;
24216;SDS011;12356;49.386;8.688;2024-01-15T09:36:18;34.25;;;13.30;;
24216;SDS011;12356;49.386;8.688;2024-01-15T09:38:48;31.58;;;12.88;;
24216;SDS011;12356;49.386;8.688;2024-01-15T09:41:19;27.45;;;12.48;;
24216;SDS011;12356;49.386;8.688;2024-01-15T09:43:49;32.35;;;12.32;;
24216;SDS011;12356;49.386;8.688;2024-01-15T09:46:20;28.13;;;12.52;;
24216;SDS011;12356;49.386;8.688;2024-01-15T09:48:51;31.83;;;12.35;;
24216;SDS011;12356;49.386;8.688;2024-01-15T09:51:22;30.67;;;12.43;;
24216;SDS011;12356;49.386;8.688;2024-01-15T09:53:54;26.75;;;12.05;;
24216;SDS011;12356;49.386;8.688;2024-01-15T09:56:25;27.08;;;11.88;;
24216;SDS011;12356;49.386;8.688;2024-01-15T09:58:56;30.90;;;12.18;;
24216;SDS011;12356;49.386;8.688;2024-01-15T10:01:27;27.92;;;13.07;;
24216;SDS011;12356;49.386;8.688;2024-01-15T10:03:59;27.90;;;12.77;;
24216;SDS011;12356;49.386;8.688;2024-01-15T10:06:30;30.23;;;12.95;;
24216;SDS011;12356;49.386;8.688;2024-01-15T10:09:00;26.38;;;11.77;;
24216;SDS011;12356;49.386;8.688;2024-01-15T10:11:33;30.70;;;13.20;;
24216;SDS011;12356;49.386;8.688;2024-01-15T10:14:04;26.65;;;12.88;;
24216;SDS011;12356;49.386;8.688;2024-01-15T10:16:35;27.75;;;12.63;;
24216;SDS011;12356;49.386;8.688;2024-01-15T10:19:10;29.92;;;13.32;;
24216;SDS011;12356;49.386;8.688;2024-01-15T10:21:40;28.10;;;12.05;;
24216;SDS011;12356;49.386;8.688;2024-01-15T10:24:11;30.15;;;12.65;;
24216;SDS011;12356;49.386;8.688;2024-01-15T10:26:42;30.10;;;12.80;;
24216;SDS011;12356;49.386;8.688;2024-01-15T10:29:14;30.60;;;12.95;;
24216;SDS011;12356;49.386;8.688;2024-01-15T10:31:45;28.70;;;12.73;;
24216;SDS011;12356;49.386;8.688;2024-01-15T10:34:16;30.23;;;13.23;;
24216;SDS011;12356;49.386;8.688;2024-01-15T10:36:47;28.35;;;12.68;;
24216;SDS011;12356;49.386;8.688;2024-01-15T10:39:25;31.10;;;12.80;;
24216;SDS011;12356;49.386;8.688;2024-01-15T10:41:55;29.17;;;12.45;;
24216;SDS011;12356;49.386;8.688;2024-01-15T10:44:26;29.63;;;12.98;;
24216;SDS011;12356;49.386;8.688;2024-01-15T10:46:57;29.50;;;12.77;;
24216;SDS011;12356;49.386;8.688;2024-01-15T10:49:27;31.58;;;13.07;;
24216;SDS011;12356;49.386;8.688;2024-01-15T10:52:00;34.40;;;14.13;;
24216;SDS011;12356;49.386;8.688;2024-01-15T10:54:32;33.30;;;13.73;;
24216;SDS011;12356;49.386;8.688;2024-01-15T10:57:03;32.60;;;13.55;;
24216;SDS011;12356;49.386;8.688;2024-01-15T10:59:36;33.88;;;13.90;;
24216;SDS011;12356;49.386;8.688;2024-01-15T11:02:06;30.52;;;13.43;;
24216;SDS011;12356;49.386;8.688;2024-01-15T11:04:38;27.88;;;13.02;;
24216;SDS011;12356;49.386;8.688;2024-01-15T11:07:08;32.00;;;13.85;;
24216;SDS011;12356;49.386;8.688;2024-01-15T11:09:41;29.75;;;13.38;;
24216;SDS011;12356;49.386;8.688;2024-01-15T11:12:12;32.10;;;13.40;;
24216;SDS011;12356;49.386;8.688;2024-01-15T11:14:47;32.17;;;13.00;;
24216;SDS011;12356;49.386;8.688;2024-01-15T11:17:19;29.02;;;12.70;;
24216;SDS011;12356;49.386;8.688;2024-01-15T11:19:50;29.30;;;13.15;;
24216;SDS011;12356;49.386;8.688;2024-01-15T11:25:12;28.52;;;13.38;;
24216;SDS011;12356;49.386;8.688;2024-01-15T11:27:45;32.67;;;14.18;;
24216;SDS011;12356;49.386;8.688;2024-01-15T11:30:26;31.45;;;13.73;;
24216;SDS011;12356;49.386;8.688;2024-01-15T11:32:57;28.83;;;13.80;;
24216;SDS011;12356;49.386;8.688;2024-01-15T11:35:45;32.38;;;13.10;;
24216;SDS011;12356;49.386;8.688;2024-01-15T11:38:28;29.70;;;12.52;;
24216;SDS011;12356;49.386;8.688;2024-01-15T11:40:59;31.02;;;13.35;;
24216;SDS011;12356;49.386;8.688;2024-01-15T11:43:31;33.83;;;14.25;;
24216;SDS011;12356;49.386;8.688;2024-01-15T11:46:03;28.83;;;13.85;;
24216;SDS011;12356;49.386;8.688;2024-01-15T11:48:38;33.63;;;13.10;;
24216;SDS011;12356;49.386;8.688;2024-01-15T11:51:14;30.58;;;13.23;;
24216;SDS011;12356;49.386;8.688;2024-01-15T11:53:48;32.67;;;13.48;;
24216;SDS011;12356;49.386;8.688;2024-01-15T11:56:22;31.17;;;13.98;;
24216;SDS011;12356;49.386;8.688;2024-01-15T11:58:53;31.70;;;13.90;;
24216;SDS011;12356;49.386;8.688;2024-01-15T12:01:24;28.08;;;13.25;;
24216;SDS011;12356;49.386;8.688;2024-01-15T12:03:55;29.85;;;13.30;;
24216;SDS011;12356;49.386;8.688;2024-01-15T12:06:25;30.60;;;13.20;;
24216;SDS011;12356;49.386;8.688;2024-01-15T12:09:07;21.30;;;9.57;;
24216;SDS011;12356;49.386;8.688;2024-01-15T12:11:37;29.38;;;12.35;;
24216;SDS011;12356;49.386;8.688;2024-01-15T12:14:14;28.90;;;12.18;;
24216;SDS011;12356;49.386;8.688;2024-01-15T12:16:45;26.90;;;12.02;;
24216;SDS011;12356;49.386;8.688;2024-01-15T12:19:15;27.95;;;11.88;;
24216;SDS011;12356;49.386;8.688;2024-01-15T12:21:46;22.80;;;11.07;;
24216;SDS011;12356;49.386;8.688;2024-01-15T12:24:18;25.77;;;11.40;;
24216;SDS011;12356;49.386;8.688;2024-01-15T12:26:48;22.27;;;10.95;;
24216;SDS011;12356;49.386;8.688;2024-01-15T12:29:19;26.08;;;12.30;;
24216;SDS011;12356;49.386;8.688;2024-01-15T12:31:50;24.33;;;11.40;;
24216;SDS011;12356;49.386;8.688;2024-01-15T12:34:23;27.08;;;11.75;;
24216;SDS011;12356;49.386;8.688;2024-01-15T12:36:53;27.38;;;11.80;;
24216;SDS011;12356;49.386;8.688;2024-01-15T12:39:24;25.20;;;11.13;;
24216;SDS011;12356;49.386;8.688;2024-01-15T12:41:55;25.52;;;12.00;;
24216;SDS011;12356;49.386;8.688;2024-01-15T12:44:25;28.17;;;11.77;;
24216;SDS011;12356;49.386;8.688;2024-01-15T12:46:56;26.05;;;11.57;;
24216;SDS011;12356;49.386;8.688;2024-01-15T12:49:27;27.63;;;11.73;;
24216;SDS011;12356;49.386;8.688;2024-01-15T12:51:58;28.10;;;12.35;;
24216;SDS011;12356;49.386;8.688;2024-01-15T12:54:29;24.45;;;11.85;;
24216;SDS011;12356;49.386;8.688;2024-01-15T12:57:00;28.08;;;12.05;;
24216;SDS011;12356;49.386;8.688;2024-01-15T12:59:30;31.65;;;13.18;;
24216;SDS011;12356;49.386;8.688;2024-01-15T13:02:01;29.27;;;13.15;;
24216;SDS011;12356;49.386;8.688;2024-01-15T13:04:32;30.17;;;13.48;;
24216;SDS011;12356;49.386;8.688;2024-01-15T13:07:02;26.90;;;12.13;;
24216;SDS011;12356;49.386;8.688;2024-01-15T13:09:33;24.48;;;11.82;;
24216;SDS011;12356;49.386;8.688;2024-01-15T13:12:05;17.90;;;8.10;;
24216;SDS011;12356;49.386;8.688;2024-01-15T13:14:35;25.48;;;12.07;;
24216;SDS011;12356;49.386;8.688;2024-01-15T13:17:06;24.10;;;11.45;;
24216;SDS011;12356;49.386;8.688;2024-01-15T13:19:37;25.40;;;12.40;;
24216;SDS011;12356;49.386;8.688;2024-01-15T13:22:07;24.70;;;11.95;;
24216;SDS011;12356;49.386;8.688;2024-01-15T13:24:39;22.33;;;10.73;;
24216;SDS011;12356;49.386;8.688;2024-01-15T13:27:10;21.00;;;10.13;;
24216;SDS011;12356;49.386;8.688;2024-01-15T13:29:41;19.95;;;10.50;;
24216;SDS011;12356;49.386;8.688;2024-01-15T13:32:12;22.92;;;10.82;;
24216;SDS011;12356;49.386;8.688;2024-01-15T13:34:47;22.15;;;10.55;;
24216;SDS011;12356;49.386;8.688;2024-01-15T13:37:17;20.63;;;10.18;;
24216;SDS011;12356;49.386;8.688;2024-01-15T13:39:48;21.27;;;10.23;;
24216;SDS011;12356;49.386;8.688;2024-01-15T13:42:18;19.38;;;9.65;;
24216;SDS011;12356;49.386;8.688;2024-01-15T13:44:51;19.65;;;10.15;;
24216;SDS011;12356;49.386;8.688;2024-01-15T13:47:22;19.95;;;10.02;;
24216;SDS011;12356;49.386;8.688;2024-01-15T13:49:54;17.73;;;9.23;;
24216;SDS011;12356;49.386;8.688;2024-01-15T13:52:25;19.85;;;9.85;;
24216;SDS011;12356;49.386;8.688;2024-01-15T13:54:55;22.27;;;11.63;;
24216;SDS011;12356;49.386;8.688;2024-01-15T13:57:26;23.52;;;12.57;;
24216;SDS011;12356;49.386;8.688;2024-01-15T13:59:56;23.02;;;11.48;;
24216;SDS011;12356;49.386;8.688;2024-01-15T14:02:27;21.83;;;11.02;;
24216;SDS011;12356;49.386;8.688;2024-01-15T14:04:58;21.17;;;10.93;;
24216;SDS011;12356;49.386;8.688;2024-01-15T14:07:28;22.92;;;11.48;;
24216;SDS011;12356;49.386;8.688;2024-01-15T14:09:59;23.25;;;10.88;;
24216;SDS011;12356;49.386;8.688;2024-01-15T14:12:29;24.08;;;12.00;;
24216;SDS011;12356;49.386;8.688;2024-01-15T14:15:00;21.00;;;9.93;;
24216;SDS011;12356;49.386;8.688;2024-01-15T14:17:31;18.55;;;10.02;;
24216;SDS011;12356;49.386;8.688;2024-01-15T14:20:02;20.80;;;10.90;;
24216;SDS011;12356;49.386;8.688;2024-01-15T14:22:35;20.80;;;10.70;;
24216;SDS011;12356;49.386;8.688;2024-01-15T14:25:05;19.63;;;10.10;;
24216;SDS011;12356;49.386;8.688;2024-01-15T14:27:37;18.70;;;9.93;;
24216;SDS011;12356;49.386;8.688;2024-01-15T14:30:07;19.60;;;11.27;;
24216;SDS011;12356;49.386;8.688;2024-01-15T14:32:39;22.23;;;11.25;;
24216;SDS011;12356;49.386;8.688;2024-01-15T14:35:09;17.42;;;9.73;;
24216;SDS011;12356;49.386;8.688;2024-01-15T14:37:40;21.90;;;10.00;;
24216;SDS011;12356;49.386;8.688;2024-01-15T14:40:11;16.77;;;9.52;;
24216;SDS011;12356;49.386;8.688;2024-01-15T14:42:42;18.98;;;9.60;;
24216;SDS011;12356;49.386;8.688;2024-01-15T14:45:12;21.98;;;10.40;;